Tongliao, China
Current Conditions -  °F | °C
As of 9:30 PM on Sunday 21 Dec 2014 (Local Time) from ZYTX Reporting Station
Clear Clear  
Wind Chill:   Ceiling: Unl
Heat Index: 14°   Visibility: 6mi
Dew Point:   Wind: 9mph
Humidity: 53%   Direction: 170°S
Pressure: 30.09"   Gusts: NA
Location:  43.62°N, 122.27°E
Report Text: ZYTX 211330Z 17004MPS CAVOK M10/M18 Q1019 NOSIG
Loading
Personal Weather Stations






























Interactive Weather Map New forecast layout! Learn more

10-Day Weather Forecast

Advertisements
Track Severe Weather on mobile